sensor_id;sensor_type;location;lat;lon;timestamp;P1;durP1;ratioP1;P2;durP2;ratioP2
8636;SDS011;4356;49.068;8.658;2023-11-21T00:00:29;1.83;;;0.70;;
8636;SDS011;4356;49.068;8.658;2023-11-21T00:02:54;3.10;;;0.90;;
8636;SDS011;4356;49.068;8.658;2023-11-21T00:05:20;0.93;;;0.93;;
8636;SDS011;4356;49.068;8.658;2023-11-21T00:07:48;0.60;;;0.60;;
8636;SDS011;4356;49.068;8.658;2023-11-21T00:10:13;2.13;;;0.90;;
8636;SDS011;4356;49.068;8.658;2023-11-21T00:12:39;0.60;;;0.60;;
8636;SDS011;4356;49.068;8.658;2023-11-21T00:15:07;1.53;;;0.90;;
8636;SDS011;4356;49.068;8.658;2023-11-21T00:17:36;2.03;;;0.83;;
8636;SDS011;4356;49.068;8.658;2023-11-21T00:20:02;1.40;;;0.70;;
8636;SDS011;4356;49.068;8.658;2023-11-21T00:22:31;0.97;;;0.87;;
8636;SDS011;4356;49.068;8.658;2023-11-21T00:24:57;0.77;;;0.73;;
8636;SDS011;4356;49.068;8.658;2023-11-21T00:27:23;0.93;;;0.57;;
8636;SDS011;4356;49.068;8.658;2023-11-21T00:29:48;2.03;;;0.70;;
8636;SDS011;4356;49.068;8.658;2023-11-21T00:32:13;0.83;;;0.83;;
8636;SDS011;4356;49.068;8.658;2023-11-21T00:34:39;0.83;;;0.60;;
8636;SDS011;4356;49.068;8.658;2023-11-21T00:37:05;0.73;;;0.67;;
8636;SDS011;4356;49.068;8.658;2023-11-21T00:39:30;0.80;;;0.70;;
8636;SDS011;4356;49.068;8.658;2023-11-21T00:41:55;0.60;;;0.50;;
8636;SDS011;4356;49.068;8.658;2023-11-21T00:44:21;1.77;;;0.87;;
8636;SDS011;4356;49.068;8.658;2023-11-21T00:46:46;0.90;;;0.70;;
8636;SDS011;4356;49.068;8.658;2023-11-21T00:49:12;1.63;;;0.60;;
8636;SDS011;4356;49.068;8.658;2023-11-21T00:51:38;3.67;;;0.90;;
8636;SDS011;4356;49.068;8.658;2023-11-21T00:54:03;0.70;;;0.60;;
8636;SDS011;4356;49.068;8.658;2023-11-21T00:56:29;0.73;;;0.67;;
8636;SDS011;4356;49.068;8.658;2023-11-21T00:58:54;1.20;;;0.80;;
8636;SDS011;4356;49.068;8.658;2023-11-21T01:01:20;1.73;;;0.93;;
8636;SDS011;4356;49.068;8.658;2023-11-21T01:03:49;0.50;;;0.50;;
8636;SDS011;4356;49.068;8.658;2023-11-21T01:06:15;0.40;;;0.40;;
8636;SDS011;4356;49.068;8.658;2023-11-21T01:08:41;0.60;;;0.60;;
8636;SDS011;4356;49.068;8.658;2023-11-21T01:11:06;0.97;;;0.80;;
8636;SDS011;4356;49.068;8.658;2023-11-21T01:13:37;1.27;;;0.60;;
8636;SDS011;4356;49.068;8.658;2023-11-21T01:16:03;1.00;;;0.73;;
8636;SDS011;4356;49.068;8.658;2023-11-21T01:18:29;1.57;;;1.13;;
8636;SDS011;4356;49.068;8.658;2023-11-21T01:20:54;0.40;;;0.40;;
8636;SDS011;4356;49.068;8.658;2023-11-21T01:23:19;0.67;;;0.67;;
8636;SDS011;4356;49.068;8.658;2023-11-21T01:25:45;0.80;;;0.80;;
8636;SDS011;4356;49.068;8.658;2023-11-21T01:28:10;0.30;;;0.30;;
8636;SDS011;4356;49.068;8.658;2023-11-21T01:30:36;1.03;;;0.63;;
8636;SDS011;4356;49.068;8.658;2023-11-21T01:33:01;0.97;;;0.70;;
8636;SDS011;4356;49.068;8.658;2023-11-21T01:35:26;1.47;;;0.70;;
8636;SDS011;4356;49.068;8.658;2023-11-21T01:37:52;0.70;;;0.70;;
8636;SDS011;4356;49.068;8.658;2023-11-21T01:40:17;2.97;;;0.50;;
8636;SDS011;4356;49.068;8.658;2023-11-21T01:42:43;0.67;;;0.67;;
8636;SDS011;4356;49.068;8.658;2023-11-21T01:45:11;1.50;;;0.67;;
8636;SDS011;4356;49.068;8.658;2023-11-21T01:47:38;0.93;;;0.87;;
8636;SDS011;4356;49.068;8.658;2023-11-21T01:50:06;0.73;;;0.73;;
8636;SDS011;4356;49.068;8.658;2023-11-21T01:52:32;3.60;;;1.23;;
8636;SDS011;4356;49.068;8.658;2023-11-21T01:54:59;0.70;;;0.67;;
8636;SDS011;4356;49.068;8.658;2023-11-21T01:57:25;2.90;;;0.70;;
8636;SDS011;4356;49.068;8.658;2023-11-21T01:59:51;2.00;;;0.73;;
8636;SDS011;4356;49.068;8.658;2023-11-21T02:02:19;2.10;;;0.90;;
8636;SDS011;4356;49.068;8.658;2023-11-21T02:04:44;1.83;;;0.77;;
8636;SDS011;4356;49.068;8.658;2023-11-21T02:07:10;1.17;;;0.73;;
8636;SDS011;4356;49.068;8.658;2023-11-21T02:09:35;1.70;;;0.70;;
8636;SDS011;4356;49.068;8.658;2023-11-21T02:12:03;1.47;;;0.83;;
8636;SDS011;4356;49.068;8.658;2023-11-21T02:14:30;1.53;;;0.80;;
8636;SDS011;4356;49.068;8.658;2023-11-21T02:16:55;0.67;;;0.67;;
8636;SDS011;4356;49.068;8.658;2023-11-21T02:19:26;1.17;;;1.07;;
8636;SDS011;4356;49.068;8.658;2023-11-21T02:21:51;4.10;;;0.90;;
8636;SDS011;4356;49.068;8.658;2023-11-21T02:24:21;1.80;;;0.73;;
8636;SDS011;4356;49.068;8.658;2023-11-21T02:26:48;0.83;;;0.60;;
8636;SDS011;4356;49.068;8.658;2023-11-21T02:29:14;2.93;;;0.50;;
8636;SDS011;4356;49.068;8.658;2023-11-21T02:31:43;0.40;;;0.40;;
8636;SDS011;4356;49.068;8.658;2023-11-21T02:34:16;1.90;;;0.80;;
8636;SDS011;4356;49.068;8.658;2023-11-21T02:36:42;0.40;;;0.40;;
8636;SDS011;4356;49.068;8.658;2023-11-21T02:39:09;1.07;;;0.63;;
8636;SDS011;4356;49.068;8.658;2023-11-21T02:41:35;0.87;;;0.60;;
8636;SDS011;4356;49.068;8.658;2023-11-21T02:44:01;0.73;;;0.60;;
8636;SDS011;4356;49.068;8.658;2023-11-21T02:46:26;0.70;;;0.70;;
8636;SDS011;4356;49.068;8.658;2023-11-21T02:48:52;0.77;;;0.77;;
8636;SDS011;4356;49.068;8.658;2023-11-21T02:51:19;0.43;;;0.43;;
8636;SDS011;4356;49.068;8.658;2023-11-21T02:53:45;0.50;;;0.50;;
8636;SDS011;4356;49.068;8.658;2023-11-21T02:56:11;0.90;;;0.90;;
8636;SDS011;4356;49.068;8.658;2023-11-21T02:58:37;0.97;;;0.87;;
8636;SDS011;4356;49.068;8.658;2023-11-21T03:01:03;1.03;;;0.73;;
8636;SDS011;4356;49.068;8.658;2023-11-21T03:03:32;0.73;;;0.60;;
8636;SDS011;4356;49.068;8.658;2023-11-21T03:05:57;1.70;;;0.73;;
8636;SDS011;4356;49.068;8.658;2023-11-21T03:08:23;1.90;;;0.80;;
8636;SDS011;4356;49.068;8.658;2023-11-21T03:10:48;0.50;;;0.50;;
8636;SDS011;4356;49.068;8.658;2023-11-21T03:13:13;0.47;;;0.47;;
8636;SDS011;4356;49.068;8.658;2023-11-21T03:15:39;0.90;;;0.70;;
8636;SDS011;4356;49.068;8.658;2023-11-21T03:18:04;0.97;;;0.87;;
8636;SDS011;4356;49.068;8.658;2023-11-21T03:20:30;1.40;;;0.70;;
8636;SDS011;4356;49.068;8.658;2023-11-21T03:22:55;0.97;;;0.83;;
8636;SDS011;4356;49.068;8.658;2023-11-21T03:25:20;0.93;;;0.93;;
8636;SDS011;4356;49.068;8.658;2023-11-21T03:27:49;1.00;;;0.77;;
8636;SDS011;4356;49.068;8.658;2023-11-21T03:30:14;1.50;;;0.73;;
8636;SDS011;4356;49.068;8.658;2023-11-21T03:32:40;0.80;;;0.80;;
8636;SDS011;4356;49.068;8.658;2023-11-21T03:35:05;0.73;;;0.73;;
8636;SDS011;4356;49.068;8.658;2023-11-21T03:37:31;1.20;;;0.80;;
8636;SDS011;4356;49.068;8.658;2023-11-21T03:39:56;0.40;;;0.40;;
8636;SDS011;4356;49.068;8.658;2023-11-21T03:42:22;0.67;;;0.67;;
8636;SDS011;4356;49.068;8.658;2023-11-21T03:44:47;0.80;;;0.80;;
8636;SDS011;4356;49.068;8.658;2023-11-21T03:47:12;0.50;;;0.50;;
8636;SDS011;4356;49.068;8.658;2023-11-21T03:49:38;0.43;;;0.43;;
8636;SDS011;4356;49.068;8.658;2023-11-21T03:52:04;1.00;;;1.00;;
8636;SDS011;4356;49.068;8.658;2023-11-21T03:54:29;0.70;;;0.67;;
8636;SDS011;4356;49.068;8.658;2023-11-21T03:56:55;0.70;;;0.70;;
8636;SDS011;4356;49.068;8.658;2023-11-21T03:59:21;0.83;;;0.83;;
8636;SDS011;4356;49.068;8.658;2023-11-21T04:01:49;1.03;;;0.70;;
8636;SDS011;4356;49.068;8.658;2023-11-21T04:04:15;3.40;;;1.03;;
8636;SDS011;4356;49.068;8.658;2023-11-21T04:06:40;1.57;;;0.63;;
8636;SDS011;4356;49.068;8.658;2023-11-21T04:09:06;1.03;;;1.00;;
8636;SDS011;4356;49.068;8.658;2023-11-21T04:11:31;1.67;;;1.00;;
8636;SDS011;4356;49.068;8.658;2023-11-21T04:13:57;1.03;;;0.50;;
8636;SDS011;4356;49.068;8.658;2023-11-21T04:16:22;0.60;;;0.60;;
8636;SDS011;4356;49.068;8.658;2023-11-21T04:18:47;0.67;;;0.50;;
8636;SDS011;4356;49.068;8.658;2023-11-21T04:21:13;0.70;;;0.63;;
8636;SDS011;4356;49.068;8.658;2023-11-21T04:23:38;0.73;;;0.60;;
8636;SDS011;4356;49.068;8.658;2023-11-21T04:26:04;0.97;;;0.80;;
8636;SDS011;4356;49.068;8.658;2023-11-21T04:28:30;0.57;;;0.40;;
8636;SDS011;4356;49.068;8.658;2023-11-21T04:30:55;2.63;;;0.67;;
8636;SDS011;4356;49.068;8.658;2023-11-21T04:33:21;0.80;;;0.70;;
8636;SDS011;4356;49.068;8.658;2023-11-21T04:35:47;2.70;;;0.73;;
8636;SDS011;4356;49.068;8.658;2023-11-21T04:38:13;1.43;;;0.50;;
8636;SDS011;4356;49.068;8.658;2023-11-21T04:40:39;1.20;;;0.60;;
8636;SDS011;4356;49.068;8.658;2023-11-21T04:43:04;0.40;;;0.40;;
8636;SDS011;4356;49.068;8.658;2023-11-21T04:45:30;0.77;;;0.67;;
8636;SDS011;4356;49.068;8.658;2023-11-21T04:47:55;0.60;;;0.60;;
8636;SDS011;4356;49.068;8.658;2023-11-21T04:50:21;2.50;;;1.20;;
8636;SDS011;4356;49.068;8.658;2023-11-21T04:52:46;0.67;;;0.67;;
8636;SDS011;4356;49.068;8.658;2023-11-21T04:55:12;2.10;;;0.73;;
8636;SDS011;4356;49.068;8.658;2023-11-21T04:57:37;1.47;;;0.77;;
8636;SDS011;4356;49.068;8.658;2023-11-21T05:00:03;2.50;;;0.90;;
8636;SDS011;4356;49.068;8.658;2023-11-21T05:02:31;1.10;;;0.83;;
8636;SDS011;4356;49.068;8.658;2023-11-21T05:04:59;1.03;;;1.03;;
8636;SDS011;4356;49.068;8.658;2023-11-21T05:07:24;2.47;;;0.93;;
8636;SDS011;4356;49.068;8.658;2023-11-21T05:09:53;1.10;;;0.93;;
8636;SDS011;4356;49.068;8.658;2023-11-21T05:12:20;0.67;;;0.67;;
8636;SDS011;4356;49.068;8.658;2023-11-21T05:14:46;1.53;;;0.80;;
8636;SDS011;4356;49.068;8.658;2023-11-21T05:17:12;0.53;;;0.53;;
8636;SDS011;4356;49.068;8.658;2023-11-21T05:19:38;1.07;;;0.97;;
8636;SDS011;4356;49.068;8.658;2023-11-21T05:22:05;1.90;;;0.90;;
8636;SDS011;4356;49.068;8.658;2023-11-21T05:24:30;0.30;;;0.30;;
8636;SDS011;4356;49.068;8.658;2023-11-21T05:26:56;0.90;;;0.70;;
8636;SDS011;4356;49.068;8.658;2023-11-21T05:29:22;2.20;;;0.80;;
8636;SDS011;4356;49.068;8.658;2023-11-21T05:31:47;1.83;;;0.77;;
8636;SDS011;4356;49.068;8.658;2023-11-21T05:34:12;4.60;;;0.87;;
8636;SDS011;4356;49.068;8.658;2023-11-21T05:36:38;1.00;;;1.00;;
8636;SDS011;4356;49.068;8.658;2023-11-21T05:39:03;1.33;;;0.90;;
8636;SDS011;4356;49.068;8.658;2023-11-21T05:41:29;0.77;;;0.50;;
8636;SDS011;4356;49.068;8.658;2023-11-21T05:43:55;1.03;;;0.83;;
8636;SDS011;4356;49.068;8.658;2023-11-21T05:46:20;1.03;;;1.00;;
8636;SDS011;4356;49.068;8.658;2023-11-21T05:48:45;1.20;;;1.10;;
8636;SDS011;4356;49.068;8.658;2023-11-21T05:51:11;2.67;;;1.20;;
8636;SDS011;4356;49.068;8.658;2023-11-21T05:53:37;1.40;;;0.83;;
8636;SDS011;4356;49.068;8.658;2023-11-21T05:56:03;0.80;;;0.80;;
8636;SDS011;4356;49.068;8.658;2023-11-21T05:58:29;2.13;;;1.03;;
8636;SDS011;4356;49.068;8.658;2023-11-21T06:00:54;0.70;;;0.70;;
8636;SDS011;4356;49.068;8.658;2023-11-21T06:03:19;0.83;;;0.83;;
8636;SDS011;4356;49.068;8.658;2023-11-21T06:05:45;0.90;;;0.90;;
8636;SDS011;4356;49.068;8.658;2023-11-21T06:08:10;1.43;;;1.33;;
8636;SDS011;4356;49.068;8.658;2023-11-21T06:10:35;1.50;;;1.00;;
8636;SDS011;4356;49.068;8.658;2023-11-21T06:13:01;1.37;;;1.27;;
8636;SDS011;4356;49.068;8.658;2023-11-21T06:15:26;1.10;;;0.93;;
8636;SDS011;4356;49.068;8.658;2023-11-21T06:17:51;1.30;;;1.20;;
8636;SDS011;4356;49.068;8.658;2023-11-21T06:20:17;0.80;;;0.80;;
8636;SDS011;4356;49.068;8.658;2023-11-21T06:22:44;1.50;;;1.40;;
8636;SDS011;4356;49.068;8.658;2023-11-21T06:25:12;1.00;;;1.00;;
8636;SDS011;4356;49.068;8.658;2023-11-21T06:27:39;1.33;;;1.10;;
8636;SDS011;4356;49.068;8.658;2023-11-21T06:30:05;1.43;;;0.70;;
8636;SDS011;4356;49.068;8.658;2023-11-21T06:32:31;0.60;;;0.60;;
8636;SDS011;4356;49.068;8.658;2023-11-21T06:34:57;0.80;;;0.80;;
8636;SDS011;4356;49.068;8.658;2023-11-21T06:37:26;0.63;;;0.63;;
8636;SDS011;4356;49.068;8.658;2023-11-21T06:39:52;0.60;;;0.60;;
8636;SDS011;4356;49.068;8.658;2023-11-21T06:42:18;0.93;;;0.93;;
8636;SDS011;4356;49.068;8.658;2023-11-21T06:44:46;0.87;;;0.80;;
8636;SDS011;4356;49.068;8.658;2023-11-21T06:47:13;0.70;;;0.70;;
8636;SDS011;4356;49.068;8.658;2023-11-21T06:49:38;0.53;;;0.53;;
8636;SDS011;4356;49.068;8.658;2023-11-21T06:52:04;1.03;;;0.70;;
8636;SDS011;4356;49.068;8.658;2023-11-21T06:54:33;2.40;;;1.23;;
8636;SDS011;4356;49.068;8.658;2023-11-21T06:56:59;0.90;;;0.90;;
8636;SDS011;4356;49.068;8.658;2023-11-21T06:59:25;0.70;;;0.70;;
8636;SDS011;4356;49.068;8.658;2023-11-21T07:01:50;0.60;;;0.60;;
8636;SDS011;4356;49.068;8.658;2023-11-21T07:04:16;0.90;;;0.90;;
8636;SDS011;4356;49.068;8.658;2023-11-21T07:06:43;1.07;;;0.97;;
8636;SDS011;4356;49.068;8.658;2023-11-21T07:09:09;0.60;;;0.60;;
8636;SDS011;4356;49.068;8.658;2023-11-21T07:11:36;0.70;;;0.70;;
8636;SDS011;4356;49.068;8.658;2023-11-21T07:14:03;0.80;;;0.80;;
8636;SDS011;4356;49.068;8.658;2023-11-21T07:16:33;0.80;;;0.80;;
8636;SDS011;4356;49.068;8.658;2023-11-21T07:19:03;0.97;;;0.97;;
8636;SDS011;4356;49.068;8.658;2023-11-21T07:21:31;1.00;;;0.90;;
8636;SDS011;4356;49.068;8.658;2023-11-21T07:23:57;1.27;;;0.80;;
8636;SDS011;4356;49.068;8.658;2023-11-21T07:26:22;0.83;;;0.83;;
8636;SDS011;4356;49.068;8.658;2023-11-21T07:28:48;0.70;;;0.70;;
8636;SDS011;4356;49.068;8.658;2023-11-21T07:31:13;0.70;;;0.70;;
8636;SDS011;4356;49.068;8.658;2023-11-21T07:33:38;0.50;;;0.50;;
8636;SDS011;4356;49.068;8.658;2023-11-21T07:36:04;0.90;;;0.90;;
8636;SDS011;4356;49.068;8.658;2023-11-21T07:38:30;2.37;;;1.53;;
8636;SDS011;4356;49.068;8.658;2023-11-21T07:40:55;0.93;;;0.90;;
8636;SDS011;4356;49.068;8.658;2023-11-21T07:43:20;1.93;;;1.80;;
8636;SDS011;4356;49.068;8.658;2023-11-21T07:45:47;1.13;;;1.13;;
8636;SDS011;4356;49.068;8.658;2023-11-21T07:48:12;1.60;;;1.33;;
8636;SDS011;4356;49.068;8.658;2023-11-21T07:50:40;1.30;;;0.93;;
8636;SDS011;4356;49.068;8.658;2023-11-21T07:53:06;0.90;;;0.90;;
8636;SDS011;4356;49.068;8.658;2023-11-21T07:55:31;1.17;;;1.17;;
8636;SDS011;4356;49.068;8.658;2023-11-21T07:57:58;1.43;;;1.33;;
8636;SDS011;4356;49.068;8.658;2023-11-21T08:00:24;1.43;;;1.20;;
8636;SDS011;4356;49.068;8.658;2023-11-21T08:02:49;1.47;;;1.43;;
8636;SDS011;4356;49.068;8.658;2023-11-21T08:05:15;0.90;;;0.90;;
8636;SDS011;4356;49.068;8.658;2023-11-21T08:07:41;1.10;;;1.10;;
8636;SDS011;4356;49.068;8.658;2023-11-21T08:10:06;0.93;;;0.90;;
8636;SDS011;4356;49.068;8.658;2023-11-21T08:12:32;1.10;;;1.10;;
8636;SDS011;4356;49.068;8.658;2023-11-21T08:14:57;1.43;;;1.43;;
8636;SDS011;4356;49.068;8.658;2023-11-21T08:17:23;1.07;;;1.07;;
8636;SDS011;4356;49.068;8.658;2023-11-21T08:19:48;1.73;;;1.20;;
8636;SDS011;4356;49.068;8.658;2023-11-21T08:22:17;1.40;;;1.40;;
8636;SDS011;4356;49.068;8.658;2023-11-21T08:24:43;0.80;;;0.80;;
8636;SDS011;4356;49.068;8.658;2023-11-21T08:27:09;0.93;;;0.93;;
8636;SDS011;4356;49.068;8.658;2023-11-21T08:29:35;1.57;;;1.57;;
8636;SDS011;4356;49.068;8.658;2023-11-21T08:32:01;1.10;;;1.10;;
8636;SDS011;4356;49.068;8.658;2023-11-21T08:34:27;1.60;;;1.50;;
8636;SDS011;4356;49.068;8.658;2023-11-21T08:36:53;1.50;;;1.50;;
8636;SDS011;4356;49.068;8.658;2023-11-21T08:39:19;2.20;;;1.83;;
8636;SDS011;4356;49.068;8.658;2023-11-21T08:41:44;1.73;;;1.73;;
8636;SDS011;4356;49.068;8.658;2023-11-21T08:44:09;1.73;;;1.63;;
8636;SDS011;4356;49.068;8.658;2023-11-21T08:46:35;2.07;;;1.83;;
8636;SDS011;4356;49.068;8.658;2023-11-21T08:49:03;2.00;;;1.90;;
8636;SDS011;4356;49.068;8.658;2023-11-21T08:51:28;1.90;;;1.80;;
8636;SDS011;4356;49.068;8.658;2023-11-21T08:53:54;2.30;;;2.20;;
8636;SDS011;4356;49.068;8.658;2023-11-21T08:56:20;2.17;;;1.97;;
8636;SDS011;4356;49.068;8.658;2023-11-21T08:58:45;2.03;;;1.80;;
8636;SDS011;4356;49.068;8.658;2023-11-21T09:01:12;1.60;;;1.57;;
8636;SDS011;4356;49.068;8.658;2023-11-21T09:03:38;2.37;;;1.80;;
8636;SDS011;4356;49.068;8.658;2023-11-21T09:06:03;2.40;;;2.20;;
8636;SDS011;4356;49.068;8.658;2023-11-21T09:08:29;3.07;;;2.77;;
8636;SDS011;4356;49.068;8.658;2023-11-21T09:10:55;3.40;;;2.90;;
8636;SDS011;4356;49.068;8.658;2023-11-21T09:13:20;3.10;;;2.90;;
8636;SDS011;4356;49.068;8.658;2023-11-21T09:15:46;3.00;;;2.80;;
8636;SDS011;4356;49.068;8.658;2023-11-21T09:18:14;3.90;;;3.60;;
8636;SDS011;4356;49.068;8.658;2023-11-21T09:20:40;4.43;;;4.03;;
8636;SDS011;4356;49.068;8.658;2023-11-21T09:23:09;4.57;;;4.27;;
8636;SDS011;4356;49.068;8.658;2023-11-21T09:25:34;5.70;;;5.20;;
8636;SDS011;4356;49.068;8.658;2023-11-21T09:27:59;6.57;;;5.40;;
8636;SDS011;4356;49.068;8.658;2023-11-21T09:30:25;6.40;;;5.90;;
8636;SDS011;4356;49.068;8.658;2023-11-21T09:32:51;7.37;;;6.70;;
8636;SDS011;4356;49.068;8.658;2023-11-21T09:35:17;6.10;;;5.70;;
8636;SDS011;4356;49.068;8.658;2023-11-21T09:37:43;5.93;;;5.53;;
8636;SDS011;4356;49.068;8.658;2023-11-21T09:40:11;5.83;;;5.43;;
8636;SDS011;4356;49.068;8.658;2023-11-21T09:42:39;6.53;;;5.80;;
8636;SDS011;4356;49.068;8.658;2023-11-21T09:45:15;6.70;;;6.10;;
8636;SDS011;4356;49.068;8.658;2023-11-21T09:47:46;6.53;;;5.70;;
8636;SDS011;4356;49.068;8.658;2023-11-21T09:50:12;6.60;;;5.97;;
8636;SDS011;4356;49.068;8.658;2023-11-21T09:55:17;7.73;;;6.67;;
8636;SDS011;4356;49.068;8.658;2023-11-21T09:57:46;5.93;;;5.43;;
8636;SDS011;4356;49.068;8.658;2023-11-21T10:00:13;5.73;;;5.30;;
8636;SDS011;4356;49.068;8.658;2023-11-21T10:02:42;7.63;;;6.60;;
8636;SDS011;4356;49.068;8.658;2023-11-21T10:05:08;5.60;;;5.13;;
8636;SDS011;4356;49.068;8.658;2023-11-21T10:07:36;6.17;;;5.77;;
8636;SDS011;4356;49.068;8.658;2023-11-21T10:10:05;6.10;;;5.60;;
8636;SDS011;4356;49.068;8.658;2023-11-21T10:12:34;5.47;;;4.97;;
8636;SDS011;4356;49.068;8.658;2023-11-21T10:15:00;6.13;;;5.53;;
8636;SDS011;4356;49.068;8.658;2023-11-21T10:17:31;6.20;;;5.70;;
8636;SDS011;4356;49.068;8.658;2023-11-21T10:20:08;5.50;;;5.00;;
8636;SDS011;4356;49.068;8.658;2023-11-21T10:22:39;6.07;;;5.60;;
8636;SDS011;4356;49.068;8.658;2023-11-21T10:25:07;5.57;;;5.17;;
8636;SDS011;4356;49.068;8.658;2023-11-21T10:27:33;6.20;;;5.70;;
8636;SDS011;4356;49.068;8.658;2023-11-21T10:30:03;5.40;;;5.10;;
8636;SDS011;4356;49.068;8.658;2023-11-21T10:32:31;6.17;;;5.57;;
8636;SDS011;4356;49.068;8.658;2023-11-21T10:34:58;6.10;;;5.50;;
8636;SDS011;4356;49.068;8.658;2023-11-21T10:37:31;7.00;;;5.23;;
8636;SDS011;4356;49.068;8.658;2023-11-21T10:39:58;5.23;;;4.83;;
8636;SDS011;4356;49.068;8.658;2023-11-21T10:42:24;8.13;;;4.80;;
8636;SDS011;4356;49.068;8.658;2023-11-21T10:44:50;6.30;;;5.30;;
8636;SDS011;4356;49.068;8.658;2023-11-21T10:47:16;5.20;;;4.70;;
8636;SDS011;4356;49.068;8.658;2023-11-21T10:49:44;5.90;;;5.30;;
8636;SDS011;4356;49.068;8.658;2023-11-21T10:52:10;5.40;;;5.03;;
8636;SDS011;4356;49.068;8.658;2023-11-21T10:54:42;4.80;;;4.40;;
8636;SDS011;4356;49.068;8.658;2023-11-21T10:57:09;4.80;;;4.40;;
8636;SDS011;4356;49.068;8.658;2023-11-21T10:59:36;5.17;;;4.77;;
8636;SDS011;4356;49.068;8.658;2023-11-21T11:02:04;7.23;;;3.73;;
8636;SDS011;4356;49.068;8.658;2023-11-21T11:04:46;4.53;;;4.20;;
8636;SDS011;4356;49.068;8.658;2023-11-21T11:07:13;5.20;;;3.90;;
8636;SDS011;4356;49.068;8.658;2023-11-21T11:09:41;4.63;;;4.13;;
8636;SDS011;4356;49.068;8.658;2023-11-21T11:12:09;3.80;;;3.60;;
8636;SDS011;4356;49.068;8.658;2023-11-21T11:14:35;4.03;;;3.73;;
8636;SDS011;4356;49.068;8.658;2023-11-21T11:17:01;4.07;;;3.77;;
8636;SDS011;4356;49.068;8.658;2023-11-21T11:19:27;4.07;;;3.77;;
8636;SDS011;4356;49.068;8.658;2023-11-21T11:21:57;5.43;;;3.80;;
8636;SDS011;4356;49.068;8.658;2023-11-21T11:27:33;4.03;;;3.60;;
8636;SDS011;4356;49.068;8.658;2023-11-21T11:36:10;4.13;;;3.93;;
8636;SDS011;4356;49.068;8.658;2023-11-21T11:38:36;4.37;;;4.07;;
8636;SDS011;4356;49.068;8.658;2023-11-21T11:41:02;4.20;;;4.00;;
8636;SDS011;4356;49.068;8.658;2023-11-21T11:43:32;3.70;;;3.43;;
8636;SDS011;4356;49.068;8.658;2023-11-21T11:45:58;3.00;;;2.80;;
8636;SDS011;4356;49.068;8.658;2023-11-21T11:48:24;2.30;;;2.20;;
8636;SDS011;4356;49.068;8.658;2023-11-21T11:51:10;2.10;;;1.90;;
8636;SDS011;4356;49.068;8.658;2023-11-21T11:53:42;1.93;;;1.83;;
8636;SDS011;4356;49.068;8.658;2023-11-21T11:58:51;2.00;;;1.90;;
8636;SDS011;4356;49.068;8.658;2023-11-21T12:01:21;2.00;;;1.90;;
8636;SDS011;4356;49.068;8.658;2023-11-21T12:06:46;2.17;;;2.07;;
8636;SDS011;4356;49.068;8.658;2023-11-21T12:09:19;2.23;;;2.13;;
8636;SDS011;4356;49.068;8.658;2023-11-21T12:11:46;1.93;;;1.83;;
8636;SDS011;4356;49.068;8.658;2023-11-21T12:14:13;2.80;;;1.90;;
8636;SDS011;4356;49.068;8.658;2023-11-21T12:16:39;2.17;;;2.07;;
8636;SDS011;4356;49.068;8.658;2023-11-21T12:19:04;2.03;;;1.93;;
8636;SDS011;4356;49.068;8.658;2023-11-21T12:21:30;1.53;;;1.47;;
8636;SDS011;4356;49.068;8.658;2023-11-21T12:23:57;1.67;;;1.57;;
8636;SDS011;4356;49.068;8.658;2023-11-21T12:26:26;2.27;;;2.10;;
8636;SDS011;4356;49.068;8.658;2023-11-21T12:28:55;1.60;;;1.48;;
8636;SDS011;4356;49.068;8.658;2023-11-21T12:31:24;1.40;;;1.30;;
8636;SDS011;4356;49.068;8.658;2023-11-21T12:33:50;1.63;;;1.53;;
8636;SDS011;4356;49.068;8.658;2023-11-21T12:36:16;1.33;;;1.27;;
8636;SDS011;4356;49.068;8.658;2023-11-21T12:38:42;1.37;;;1.27;;
8636;SDS011;4356;49.068;8.658;2023-11-21T12:41:08;1.33;;;1.33;;
8636;SDS011;4356;49.068;8.658;2023-11-21T12:43:35;1.80;;;1.50;;
8636;SDS011;4356;49.068;8.658;2023-11-21T12:46:07;1.10;;;1.07;;
8636;SDS011;4356;49.068;8.658;2023-11-21T12:48:38;1.33;;;1.33;;
8636;SDS011;4356;49.068;8.658;2023-11-21T12:51:10;1.53;;;1.43;;
8636;SDS011;4356;49.068;8.658;2023-11-21T12:53:39;1.50;;;1.40;;
8636;SDS011;4356;49.068;8.658;2023-11-21T12:56:06;1.90;;;1.80;;
8636;SDS011;4356;49.068;8.658;2023-11-21T12:58:34;2.23;;;2.13;;
8636;SDS011;4356;49.068;8.658;2023-11-21T13:01:00;2.00;;;1.90;;
8636;SDS011;4356;49.068;8.658;2023-11-21T13:03:29;2.50;;;2.37;;
8636;SDS011;4356;49.068;8.658;2023-11-21T13:05:55;3.13;;;2.10;;
8636;SDS011;4356;49.068;8.658;2023-11-21T13:08:23;2.50;;;2.30;;
8636;SDS011;4356;49.068;8.658;2023-11-21T13:10:50;2.83;;;2.63;;
8636;SDS011;4356;49.068;8.658;2023-11-21T13:13:19;3.10;;;2.50;;
8636;SDS011;4356;49.068;8.658;2023-11-21T13:15:48;2.40;;;2.30;;
8636;SDS011;4356;49.068;8.658;2023-11-21T13:18:15;2.30;;;2.17;;
8636;SDS011;4356;49.068;8.658;2023-11-21T13:20:42;2.97;;;2.43;;
8636;SDS011;4356;49.068;8.658;2023-11-21T13:23:08;2.77;;;2.67;;
8636;SDS011;4356;49.068;8.658;2023-11-21T13:25:37;3.27;;;2.60;;
8636;SDS011;4356;49.068;8.658;2023-11-21T13:28:06;2.67;;;2.50;;
8636;SDS011;4356;49.068;8.658;2023-11-21T13:30:32;2.67;;;2.47;;
8636;SDS011;4356;49.068;8.658;2023-11-21T13:33:04;2.87;;;2.70;;
8636;SDS011;4356;49.068;8.658;2023-11-21T13:35:37;2.90;;;2.70;;
8636;SDS011;4356;49.068;8.658;2023-11-21T13:38:11;2.83;;;2.70;;
8636;SDS011;4356;49.068;8.658;2023-11-21T13:40:37;2.90;;;2.70;;
8636;SDS011;4356;49.068;8.658;2023-11-21T13:43:14;3.10;;;2.60;;
8636;SDS011;4356;49.068;8.658;2023-11-21T13:45:46;4.70;;;3.03;;
8636;SDS011;4356;49.068;8.658;2023-11-21T13:48:12;2.93;;;2.70;;
8636;SDS011;4356;49.068;8.658;2023-11-21T13:50:45;2.10;;;2.00;;
8636;SDS011;4356;49.068;8.658;2023-11-21T13:53:23;2.80;;;2.63;;
8636;SDS011;4356;49.068;8.658;2023-11-21T13:55:50;5.20;;;2.80;;
8636;SDS011;4356;49.068;8.658;2023-11-21T13:58:16;3.17;;;2.53;;
8636;SDS011;4356;49.068;8.658;2023-11-21T14:00:49;3.40;;;3.10;;
8636;SDS011;4356;49.068;8.658;2023-11-21T14:03:22;2.50;;;2.40;;
8636;SDS011;4356;49.068;8.658;2023-11-21T14:05:48;2.73;;;2.53;;
8636;SDS011;4356;49.068;8.658;2023-11-21T14:08:22;2.40;;;2.30;;
8636;SDS011;4356;49.068;8.658;2023-11-21T14:10:53;2.40;;;2.30;;
8636;SDS011;4356;49.068;8.658;2023-11-21T14:13:23;2.90;;;2.60;;
8636;SDS011;4356;49.068;8.658;2023-11-21T14:15:49;3.00;;;2.80;;
8636;SDS011;4356;49.068;8.658;2023-11-21T14:18:22;2.60;;;2.50;;
8636;SDS011;4356;49.068;8.658;2023-11-21T14:21:03;3.33;;;2.73;;
8636;SDS011;4356;49.068;8.658;2023-11-21T14:23:30;3.07;;;2.87;;
8636;SDS011;4356;49.068;8.658;2023-11-21T14:25:56;3.13;;;2.93;;
8636;SDS011;4356;49.068;8.658;2023-11-21T14:28:23;2.80;;;2.60;;
8636;SDS011;4356;49.068;8.658;2023-11-21T14:30:48;2.70;;;2.50;;
8636;SDS011;4356;49.068;8.658;2023-11-21T14:33:14;2.70;;;2.50;;
8636;SDS011;4356;49.068;8.658;2023-11-21T14:35:41;2.63;;;2.53;;
8636;SDS011;4356;49.068;8.658;2023-11-21T14:38:08;2.80;;;2.70;;
8636;SDS011;4356;49.068;8.658;2023-11-21T14:40:35;3.30;;;3.00;;
8636;SDS011;4356;49.068;8.658;2023-11-21T14:43:04;2.87;;;2.67;;
8636;SDS011;4356;49.068;8.658;2023-11-21T14:45:33;3.23;;;2.97;;
8636;SDS011;4356;49.068;8.658;2023-11-21T14:47:59;2.80;;;2.70;;
8636;SDS011;4356;49.068;8.658;2023-11-21T14:50:33;2.80;;;2.67;;
8636;SDS011;4356;49.068;8.658;2023-11-21T14:53:18;2.70;;;2.60;;
8636;SDS011;4356;49.068;8.658;2023-11-21T14:56:04;5.27;;;3.13;;
8636;SDS011;4356;49.068;8.658;2023-11-21T14:58:30;2.90;;;2.70;;
8636;SDS011;4356;49.068;8.658;2023-11-21T15:00:56;2.90;;;2.70;;
8636;SDS011;4356;49.068;8.658;2023-11-21T15:03:24;5.23;;;2.47;;
8636;SDS011;4356;49.068;8.658;2023-11-21T15:05:56;2.67;;;2.40;;
8636;SDS011;4356;49.068;8.658;2023-11-21T15:08:35;3.33;;;2.50;;
8636;SDS011;4356;49.068;8.658;2023-11-21T15:11:01;2.50;;;2.30;;
8636;SDS011;4356;49.068;8.658;2023-11-21T15:13:32;4.03;;;2.30;;
8636;SDS011;4356;49.068;8.658;2023-11-21T15:15:58;2.23;;;2.13;;
8636;SDS011;4356;49.068;8.658;2023-11-21T15:18:32;3.40;;;2.30;;
8636;SDS011;4356;49.068;8.658;2023-11-21T15:20:58;1.97;;;1.87;;
8636;SDS011;4356;49.068;8.658;2023-11-21T15:23:23;2.73;;;2.60;;
8636;SDS011;4356;49.068;8.658;2023-11-21T15:25:49;2.47;;;2.27;;
8636;SDS011;4356;49.068;8.658;2023-11-21T15:28:14;2.63;;;2.20;;
8636;SDS011;4356;49.068;8.658;2023-11-21T15:30:39;2.97;;;2.77;;